N803RL -KGWS
Flight info
| Callsign | N803RL |
|---|---|
| Flight time | N/A |
| Altitude | VFR |
| Route | |
| Aircraft | RV8/L-DOV/C |
Departure
| Time | N/A |
|---|---|
| Airport | - |
Arrival
| Time | 2026-04-22 01:36 |
|---|---|
| Airport | Glenwood Springs Municipal Airport (KGWS) |
| Time | Latitude | Longitude | Altitude | Speed | Heading |
|---|---|---|---|---|---|
| 2026-04-22 01:25 | 39.31930 | -106.93970 | 8266 ft | 170 kts | 331° |
| 2026-04-22 01:25 | 39.32876 | -106.94802 | 8409 ft | 159 kts | 308° |
| 2026-04-22 01:25 | 39.33169 | -106.96122 | 8486 ft | 157 kts | 281° |
| 2026-04-22 01:25 | 39.33544 | -106.97500 | 8439 ft | 167 kts | 290° |
| 2026-04-22 01:26 | 39.34001 | -106.98909 | 8349 ft | 175 kts | 291° |
| 2026-04-22 01:26 | 39.34620 | -107.00258 | 8437 ft | 174 kts | 304° |
| 2026-04-22 01:26 | 39.35426 | -107.01439 | 8619 ft | 173 kts | 311° |
| 2026-04-22 01:26 | 39.36138 | -107.02713 | 8439 ft | 176 kts | 295° |
| 2026-04-22 01:27 | 39.36694 | -107.04115 | 8417 ft | 173 kts | 291° |
| 2026-04-22 01:27 | 39.37100 | -107.05462 | 8400 ft | 162 kts | 289° |
| 2026-04-22 01:27 | 39.37484 | -107.06330 | 8287 ft | 173 kts | 299° |
| 2026-04-22 01:27 | 39.38192 | -107.07686 | 8158 ft | 182 kts | 300° |
| 2026-04-22 01:28 | 39.38887 | -107.08943 | 8458 ft | 165 kts | 301° |
| 2026-04-22 01:28 | 39.39499 | -107.10237 | 8401 ft | 173 kts | 292° |
| 2026-04-22 01:28 | 39.39929 | -107.11686 | 8339 ft | 171 kts | 283° |
| 2026-04-22 01:28 | 39.40123 | -107.13139 | 8470 ft | 159 kts | 271° |
| 2026-04-22 01:29 | 39.40152 | -107.14618 | 8265 ft | 173 kts | 269° |
| 2026-04-22 01:29 | 39.40187 | -107.16146 | 8232 ft | 165 kts | 270° |
| 2026-04-22 01:29 | 39.40304 | -107.17626 | 8130 ft | 167 kts | 274° |
| 2026-04-22 01:29 | 39.40450 | -107.19128 | 7960 ft | 170 kts | 277° |
| 2026-04-22 01:30 | 39.40794 | -107.20544 | 7869 ft | 159 kts | 286° |
| 2026-04-22 01:30 | 39.41187 | -107.21936 | 7769 ft | 169 kts | 285° |
| 2026-04-22 01:30 | 39.41728 | -107.23256 | 8075 ft | 164 kts | 304° |
| 2026-04-22 01:30 | 39.42586 | -107.24296 | 7988 ft | 171 kts | 317° |
| 2026-04-22 01:31 | 39.43528 | -107.25171 | 7923 ft | 158 kts | 323° |
| 2026-04-22 01:31 | 39.44455 | -107.25902 | 7836 ft | 163 kts | 323° |
| 2026-04-22 01:31 | 39.45439 | -107.26793 | 7512 ft | 182 kts | 319° |
| 2026-04-22 01:31 | 39.46446 | -107.27745 | 7566 ft | 175 kts | 321° |
| 2026-04-22 01:32 | 39.47423 | -107.28598 | 7796 ft | 97 kts | 262° |
| 2026-04-22 01:32 | 39.47506 | -107.28331 | 7620 ft | 128 kts | 342° |
| 2026-04-22 01:32 | 39.47764 | -107.29286 | 6742 ft | 140 kts | 257° |
| 2026-04-22 01:32 | 39.47608 | -107.30416 | 6766 ft | 115 kts | 266° |
| 2026-04-22 01:33 | 39.47895 | -107.31266 | 7090 ft | 114 kts | 318° |
| 2026-04-22 01:33 | 39.48557 | -107.31784 | 7355 ft | 107 kts | 325° |
| 2026-04-22 01:33 | 39.49222 | -107.32145 | 7490 ft | 106 kts | 342° |
| 2026-04-22 01:33 | 39.49998 | -107.32291 | 7685 ft | 114 kts | 346° |
| 2026-04-22 01:34 | 39.50673 | -107.32062 | 7991 ft | 94 kts | 54° |
| 2026-04-22 01:34 | 39.50459 | -107.31472 | 7697 ft | 90 kts | 197° |
| 2026-04-22 01:34 | 39.49958 | -107.31828 | 7715 ft | 67 kts | 187° |
| 2026-04-22 01:34 | 39.49445 | -107.31463 | 6929 ft | 108 kts | 144° |
| 2026-04-22 01:35 | 39.48916 | -107.30924 | 6644 ft | 84 kts | 149° |
| 2026-04-22 01:35 | 39.48733 | -107.30303 | 6434 ft | 86 kts | 63° |
| 2026-04-22 01:35 | 39.49249 | -107.30098 | 6151 ft | 77 kts | 335° |
| 2026-04-22 01:35 | 39.49716 | -107.30351 | 6008 ft | 75 kts | 331° |
| 2026-04-22 01:36 | 39.50205 | -107.30660 | 5873 ft | 77 kts | 330° |
| 2026-04-22 01:36 | 39.50554 | -107.30887 | 5859 ft | 39 kts | 335° |
| 2026-04-22 01:36 | 39.50775 | -107.31025 | 5858 ft | 32 kts | 331° |
| 2026-04-22 01:36 | 39.50956 | -107.31145 | 5860 ft | 16 kts | 337° |
| 2026-04-22 01:37 | 39.51015 | -107.31136 | 5860 ft | 5 kts | 69° |
| 2026-04-22 01:37 | 39.51016 | -107.31132 | 5860 ft | 0 kts | 73° |
| 2026-04-22 01:37 | 39.51026 | -107.31117 | 5859 ft | 0 kts | 316° |
| 2026-04-22 01:37 | 39.51015 | -107.31136 | 5860 ft | 0 kts | 239° |
| 2026-04-22 01:39 | 39.50996 | -107.31163 | 5863 ft | 4 kts | 167° |
| 2026-04-22 01:40 | 39.50802 | -107.31057 | 5858 ft | 63 kts | 141° |
| 2026-04-22 01:40 | 39.50295 | -107.30688 | 5998 ft | 104 kts | 158° |
| 2026-04-22 01:40 | 39.49555 | -107.30298 | 6313 ft | 116 kts | 165° |
| 2026-04-22 01:40 | 39.48801 | -107.29927 | 6756 ft | 109 kts | 159° |
| 2026-04-22 01:41 | 39.48171 | -107.29437 | 7451 ft | 96 kts | 136° |
| 2026-04-22 01:41 | 39.48320 | -107.28775 | 7885 ft | 120 kts | 13° |
| 2026-04-22 01:41 | 39.49304 | -107.28690 | 7829 ft | 156 kts | 356° |
| 2026-04-22 01:41 | 39.50369 | -107.28848 | 8041 ft | 153 kts | 341° |
| 2026-04-22 01:42 | 39.51351 | -107.29350 | 8257 ft | 152 kts | 328° |
| 2026-04-22 01:42 | 39.52282 | -107.30091 | 8350 ft | 156 kts | 318° |
| 2026-04-22 01:42 | 39.53070 | -107.30923 | 8605 ft | 146 kts | 315° |
| 2026-04-22 01:42 | 39.53924 | -107.31789 | 8559 ft | 159 kts | 321° |
| 2026-04-22 01:43 | 39.54831 | -107.32684 | 8466 ft | 165 kts | 320° |
| 2026-04-22 01:43 | 39.55387 | -107.32628 | 9216 ft | 104 kts | 92° |
| 2026-04-22 01:43 | 39.55527 | -107.31153 | 8528 ft | 196 kts | 76° |
| 2026-04-22 01:43 | 39.55929 | -107.29539 | 8643 ft | 178 kts | 74° |
| 2026-04-22 01:44 | 39.56211 | -107.28020 | 8864 ft | 176 kts | 81° |
| 2026-04-22 01:44 | 39.56238 | -107.26341 | 8545 ft | 197 kts | 104° |
| 2026-04-22 01:44 | 39.56072 | -107.24635 | 8654 ft | 189 kts | 81° |
| 2026-04-22 01:44 | 39.56791 | -107.23140 | 8380 ft | 210 kts | 44° |
| 2026-04-22 01:45 | 39.57707 | -107.21692 | 8009 ft | 207 kts | 77° |
| 2026-04-22 01:45 | 39.58352 | -107.20009 | 7389 ft | 210 kts | 50° |
| 2026-04-22 01:45 | 39.59198 | -107.18440 | 6813 ft | 201 kts | 84° |
| 2026-04-22 01:45 | 39.59863 | -107.17182 | 6622 ft | 173 kts | 30° |
| 2026-04-22 01:46 | 39.60349 | -107.15789 | 6469 ft | 179 kts | 51° |
| 2026-04-22 01:46 | 39.61081 | -107.14597 | 6484 ft | 180 kts | 69° |
| 2026-04-22 01:46 | 39.61580 | -107.13140 | 6592 ft | 177 kts | 65° |
| 2026-04-22 01:46 | 39.62407 | -107.12122 | 6734 ft | 158 kts | 78° |
| 2026-04-22 01:47 | 39.62542 | -107.10705 | 6823 ft | 159 kts | 50° |
| 2026-04-22 01:47 | 39.63363 | -107.09659 | 6686 ft | 177 kts | 39° |
| 2026-04-22 01:47 | 39.63899 | -107.08663 | 7532 ft | 135 kts | 70° |
| 2026-04-22 01:47 | 39.64337 | -107.07319 | 7430 ft | 164 kts | 65° |
| 2026-04-22 01:48 | 39.64808 | -107.06013 | 7639 ft | 156 kts | 76° |
| 2026-04-22 01:48 | 39.64770 | -107.04422 | 7305 ft | 188 kts | 111° |
| 2026-04-22 01:48 | 39.64350 | -107.02863 | 7510 ft | 175 kts | 101° |
| 2026-04-22 01:48 | 39.64301 | -107.01309 | 7689 ft | 174 kts | 80° |
| 2026-04-22 01:49 | 39.64634 | -106.99772 | 7731 ft | 179 kts | 77° |
| 2026-04-22 01:49 | 39.64776 | -106.98492 | 8626 ft | 86 kts | 130° |
| 2026-04-22 01:49 | 39.64147 | -106.98074 | 8561 ft | 133 kts | 168° |
| 2026-04-22 01:49 | 39.63195 | -106.97731 | 8501 ft | 152 kts | 169° |
| 2026-04-22 01:50 | 39.62098 | -106.97458 | 8343 ft | 164 kts | 174° |
| 2026-04-22 01:50 | 39.61718 | -106.97250 | 9584 ft | 30 kts | 148° |
| 2026-04-22 01:50 | 39.61036 | -106.97063 | 9279 ft | 117 kts | 178° |
| 2026-04-22 01:50 | 39.60273 | -106.96844 | 9680 ft | 83 kts | 135° |
| 2026-04-22 01:51 | 39.59864 | -106.96095 | 9626 ft | 124 kts | 42° |
| 2026-04-22 01:51 | 39.60702 | -106.96464 | 9392 ft | 75 kts | 328° |
| 2026-04-22 01:51 | 39.60945 | -106.96248 | 9743 ft | 69 kts | 72° |
| 2026-04-22 01:51 | 39.60748 | -106.95499 | 10188 ft | 14 kts | 150° |
| 2026-04-22 01:52 | 39.60998 | -106.95361 | 9058 ft | 191 kts | 4° |
| 2026-04-22 01:52 | 39.61292 | -106.95284 | 10320 ft | 11 kts | 174° |
| 2026-04-22 01:52 | 39.60810 | -106.95464 | 9258 ft | 49 kts | 227° |
| 2026-04-22 01:52 | 39.61038 | -106.95345 | 9491 ft | 56 kts | 47° |
| 2026-04-22 01:53 | 39.60723 | -106.96183 | 7725 ft | 116 kts | 264° |
| 2026-04-22 01:53 | 39.61220 | -106.96239 | 8958 ft | 127 kts | 9° |
| 2026-04-22 01:53 | 39.62190 | -106.95591 | 8462 ft | 177 kts | 39° |
| 2026-04-22 01:53 | 39.63077 | -106.94292 | 7724 ft | 204 kts | 62° |
| 2026-04-22 01:54 | 39.63350 | -106.92663 | 7877 ft | 157 kts | 90° |
| 2026-04-22 01:54 | 39.63395 | -106.91365 | 7901 ft | 137 kts | 86° |
| 2026-04-22 01:54 | 39.63462 | -106.90220 | 7799 ft | 119 kts | 92° |
| 2026-04-22 01:54 | 39.63541 | -106.89261 | 7668 ft | 105 kts | 79° |
| 2026-04-22 01:55 | 39.63828 | -106.88393 | 7365 ft | 99 kts | 38° |
| 2026-04-22 01:55 | 39.64382 | -106.88320 | 7178 ft | 83 kts | 330° |
| 2026-04-22 01:55 | 39.64623 | -106.88837 | 6925 ft | 58 kts | 259° |
| 2026-04-22 01:55 | 39.64533 | -106.89330 | 6797 ft | 55 kts | 257° |
| 2026-04-22 01:56 | 39.64469 | -106.89811 | 6700 ft | 56 kts | 265° |
| 2026-04-22 01:56 | 39.64420 | -106.90293 | 6603 ft | 53 kts | 263° |
| 2026-04-22 01:56 | 39.64366 | -106.90734 | 6529 ft | 38 kts | 262° |
| 2026-04-22 01:56 | 39.64326 | -106.90929 | 6525 ft | 18 kts | 221° |
| 2026-04-22 01:57 | 39.64257 | -106.90939 | 6524 ft | 0 kts | 166° |
| 2026-04-22 01:57 | 39.64256 | -106.90939 | 6524 ft | 2 kts | 160° |
| 2026-04-22 01:58 | 39.64247 | -106.90850 | 6526 ft | 19 kts | 83° |
| 2026-04-22 01:58 | 39.64276 | -106.90624 | 6532 ft | 31 kts | 85° |
| 2026-04-22 01:58 | 39.64296 | -106.90394 | 6538 ft | 11 kts | 61° |
| 2026-04-22 01:58 | 39.64320 | -106.90382 | 6538 ft | 0 kts | 353° |
| 2026-04-22 01:59 | 39.64322 | -106.90382 | 6538 ft | 1 kts | 354° |
| 2026-04-22 01:59 | 39.64388 | -106.90382 | 6537 ft | 17 kts | 330° |
| 2026-04-22 01:59 | 39.64407 | -106.90447 | 6536 ft | 14 kts | 265° |
| 2026-04-22 02:00 | 39.64354 | -106.90892 | 6616 ft | 71 kts | 261° |
| 2026-04-22 02:00 | 39.64285 | -106.91479 | 7121 ft | 73 kts | 258° |
| 2026-04-22 02:00 | 39.63799 | -106.91497 | 7265 ft | 121 kts | 112° |
| 2026-04-22 02:00 | 39.63819 | -106.90300 | 7536 ft | 140 kts | 85° |
| 2026-04-22 02:01 | 39.64003 | -106.89064 | 7825 ft | 142 kts | 78° |
| 2026-04-22 02:01 | 39.64268 | -106.87806 | 8115 ft | 143 kts | 78° |
| 2026-04-22 02:01 | 39.64476 | -106.86539 | 8218 ft | 149 kts | 79° |
| 2026-04-22 02:01 | 39.64725 | -106.85157 | 8307 ft | 162 kts | 73° |
| 2026-04-22 02:02 | 39.65112 | -106.83810 | 8617 ft | 159 kts | 67° |
| 2026-04-22 02:02 | 39.65518 | -106.82443 | 8801 ft | 154 kts | 73° |
| 2026-04-22 02:02 | 39.65985 | -106.81149 | 8790 ft | 154 kts | 52° |
| 2026-04-22 02:02 | 39.66607 | -106.79959 | 8900 ft | 166 kts | 56° |
| 2026-04-22 02:03 | 39.67214 | -106.78648 | 8603 ft | 152 kts | 58° |
| 2026-04-22 02:03 | 39.67225 | -106.78386 | 9509 ft | 28 kts | 205° |
| 2026-04-22 02:03 | 39.67411 | -106.77317 | 8318 ft | 122 kts | 22° |
| 2026-04-22 02:03 | 39.68119 | -106.76234 | 8072 ft | 182 kts | 53° |
| 2026-04-22 02:04 | 39.69607 | -106.73728 | 8195 ft | 159 kts | 52° |
| 2026-04-22 02:04 | 39.70201 | -106.72428 | 8083 ft | 175 kts | 62° |
| 2026-04-22 02:04 | 39.70698 | -106.71087 | 8173 ft | 169 kts | 65° |
| 2026-04-22 02:05 | 39.70867 | -106.69539 | 7977 ft | 178 kts | 100° |
| 2026-04-22 02:05 | 39.70359 | -106.68214 | 8306 ft | 153 kts | 130° |
| 2026-04-22 02:05 | 39.69696 | -106.67183 | 8624 ft | 151 kts | 134° |
| 2026-04-22 02:05 | 39.69011 | -106.66133 | 8859 ft | 149 kts | 133° |
| 2026-04-22 02:06 | 39.68348 | -106.64999 | 8149 ft | 186 kts | 121° |
| 2026-04-22 02:06 | 39.67439 | -106.64169 | 8071 ft | 168 kts | 189° |
| 2026-04-22 02:06 | 39.66403 | -106.64572 | 8375 ft | 144 kts | 173° |
| 2026-04-22 02:06 | 39.65835 | -106.63617 | 8538 ft | 160 kts | 100° |
| 2026-04-22 02:07 | 39.65830 | -106.62121 | 8703 ft | 161 kts | 91° |
| 2026-04-22 02:07 | 39.65633 | -106.60764 | 8858 ft | 161 kts | 116° |
| 2026-04-22 02:07 | 39.65187 | -106.59426 | 9126 ft | 156 kts | 118° |
| 2026-04-22 02:07 | 39.64747 | -106.58188 | 9505 ft | 149 kts | 118° |
| 2026-04-22 02:08 | 39.64282 | -106.56961 | 9599 ft | 153 kts | 117° |
| 2026-04-22 02:08 | 39.64030 | -106.55608 | 9692 ft | 157 kts | 97° |
| 2026-04-22 02:08 | 39.63841 | -106.54191 | 9807 ft | 158 kts | 106° |
| 2026-04-22 02:08 | 39.63522 | -106.52796 | 9860 ft | 165 kts | 110° |
| 2026-04-22 02:09 | 39.63124 | -106.51375 | 9944 ft | 167 kts | 113° |
| 2026-04-22 02:09 | 39.62695 | -106.50013 | 10130 ft | 165 kts | 116° |
| 2026-04-22 02:09 | 39.62278 | -106.48598 | 10137 ft | 173 kts | 108° |
| 2026-04-22 02:09 | 39.61881 | -106.47144 | 10245 ft | 170 kts | 117° |
| 2026-04-22 02:10 | 39.61329 | -106.45813 | 10390 ft | 163 kts | 123° |
| 2026-04-22 02:10 | 39.60903 | -106.44976 | 10418 ft | 166 kts | 124° |
| 2026-04-22 02:10 | 39.61460 | -106.44044 | 10006 ft | 184 kts | 32° |
| 2026-04-22 02:10 | 39.62456 | -106.43070 | 10260 ft | 167 kts | 36° |
| 2026-04-22 02:11 | 39.63343 | -106.42205 | 10560 ft | 160 kts | 36° |
| 2026-04-22 02:11 | 39.64071 | -106.41019 | 10067 ft | 190 kts | 73° |
| 2026-04-22 02:11 | 39.64398 | -106.39379 | 10200 ft | 176 kts | 78° |
| 2026-04-22 02:11 | 39.64388 | -106.37830 | 9951 ft | 181 kts | 94° |
| 2026-04-22 02:12 | 39.64273 | -106.36222 | 9849 ft | 182 kts | 99° |
| 2026-04-22 02:12 | 39.64243 | -106.34623 | 9936 ft | 159 kts | 84° |
| 2026-04-22 02:12 | 39.64373 | -106.33244 | 10248 ft | 156 kts | 87° |
| 2026-04-22 02:12 | 39.64366 | -106.31807 | 10329 ft | 161 kts | 99° |
| 2026-04-22 02:13 | 39.63864 | -106.30458 | 10111 ft | 176 kts | 130° |
| 2026-04-22 02:13 | 39.63114 | -106.29230 | 10196 ft | 170 kts | 129° |
| 2026-04-22 02:13 | 39.62391 | -106.28056 | 10406 ft | 160 kts | 141° |
| 2026-04-22 02:13 | 39.61422 | -106.27412 | 10434 ft | 156 kts | 156° |
| 2026-04-22 02:14 | 39.60445 | -106.26883 | 10557 ft | 152 kts | 158° |
| 2026-04-22 02:14 | 39.59474 | -106.26293 | 10718 ft | 149 kts | 153° |
| 2026-04-22 02:14 | 39.58591 | -106.25600 | 10786 ft | 153 kts | 148° |
| 2026-04-22 02:14 | 39.57677 | -106.24860 | 10818 ft | 155 kts | 148° |
| 2026-04-22 02:15 | 39.56817 | -106.24060 | 10929 ft | 155 kts | 144° |
| 2026-04-22 02:15 | 39.55930 | -106.23269 | 10996 ft | 155 kts | 150° |
| 2026-04-22 02:15 | 39.55005 | -106.22590 | 11074 ft | 153 kts | 148° |
| 2026-04-22 02:15 | 39.54157 | -106.21716 | 11071 ft | 152 kts | 147° |
| 2026-04-22 02:16 | 39.53148 | -106.21584 | 11130 ft | 149 kts | 188° |
| 2026-04-22 02:16 | 39.52146 | -106.21573 | 11276 ft | 143 kts | 168° |
| 2026-04-22 02:16 | 39.51267 | -106.20959 | 11362 ft | 149 kts | 146° |
| 2026-04-22 02:16 | 39.50634 | -106.19913 | 11412 ft | 155 kts | 120° |
| 2026-04-22 02:17 | 39.50091 | -106.18606 | 11286 ft | 169 kts | 121° |
| 2026-04-22 02:17 | 39.49644 | -106.17316 | 11531 ft | 147 kts | 107° |
| 2026-04-22 02:17 | 39.49489 | -106.15993 | 11596 ft | 156 kts | 97° |
| 2026-04-22 02:17 | 39.49844 | -106.14655 | 11423 ft | 170 kts | 32° |
| 2026-04-22 02:18 | 39.50942 | -106.14365 | 11498 ft | 166 kts | 1° |
| 2026-04-22 02:18 | 39.52204 | -106.14300 | 11007 ft | 197 kts | 360° |
| 2026-04-22 02:18 | 39.53468 | -106.14240 | 11252 ft | 164 kts | 3° |
| 2026-04-22 02:18 | 39.54596 | -106.14055 | 11310 ft | 165 kts | 13° |
| 2026-04-22 02:19 | 39.55664 | -106.13384 | 11212 ft | 175 kts | 37° |
| 2026-04-22 02:19 | 39.56602 | -106.12411 | 11244 ft | 169 kts | 38° |
| 2026-04-22 02:19 | 39.57523 | -106.11461 | 11253 ft | 170 kts | 38° |
| 2026-04-22 02:19 | 39.58479 | -106.10538 | 11233 ft | 171 kts | 34° |
| 2026-04-22 02:20 | 39.59474 | -106.09722 | 11269 ft | 168 kts | 29° |
| 2026-04-22 02:20 | 39.60458 | -106.09029 | 11391 ft | 161 kts | 27° |
| 2026-04-22 02:20 | 39.61377 | -106.08269 | 11187 ft | 171 kts | 31° |
| 2026-04-22 02:20 | 39.62151 | -106.07155 | 10995 ft | 178 kts | 81° |
| 2026-04-22 02:21 | 39.61742 | -106.05756 | 11148 ft | 147 kts | 139° |
| 2026-04-22 02:21 | 39.60862 | -106.05106 | 10674 ft | 168 kts | 174° |
| 2026-04-22 02:21 | 39.59689 | -106.05142 | 10675 ft | 160 kts | 183° |
| 2026-04-22 02:21 | 39.58629 | -106.05189 | 10845 ft | 155 kts | 182° |
| 2026-04-22 02:22 | 39.57506 | -106.05289 | 10736 ft | 162 kts | 185° |
| 2026-04-22 02:22 | 39.56417 | -106.05306 | 10897 ft | 153 kts | 175° |
| 2026-04-22 02:22 | 39.55326 | -106.05082 | 10772 ft | 164 kts | 168° |
| 2026-04-22 02:22 | 39.54267 | -106.04828 | 11036 ft | 145 kts | 171° |
| 2026-04-22 02:23 | 39.53251 | -106.04598 | 11027 ft | 155 kts | 171° |
| 2026-04-22 02:23 | 39.52161 | -106.04425 | 10996 ft | 160 kts | 177° |
| 2026-04-22 02:23 | 39.51042 | -106.04357 | 10992 ft | 160 kts | 179° |
| 2026-04-22 02:23 | 39.49938 | -106.04331 | 11044 ft | 158 kts | 186° |
| 2026-04-22 02:24 | 39.48835 | -106.04563 | 11007 ft | 162 kts | 188° |
| 2026-04-22 02:24 | 39.47751 | -106.04622 | 11160 ft | 150 kts | 180° |
| 2026-04-22 02:24 | 39.46713 | -106.04382 | 11140 ft | 157 kts | 170° |
| 2026-04-22 02:24 | 39.45615 | -106.04074 | 11095 ft | 158 kts | 173° |
| 2026-04-22 02:25 | 39.44546 | -106.04068 | 11244 ft | 147 kts | 184° |
| 2026-04-22 02:25 | 39.43545 | -106.04136 | 11442 ft | 139 kts | 186° |
| 2026-04-22 02:25 | 39.42550 | -106.04264 | 11441 ft | 149 kts | 188° |
| 2026-04-22 02:25 | 39.41573 | -106.04476 | 11669 ft | 138 kts | 194° |
| 2026-04-22 02:26 | 39.40704 | -106.04786 | 12074 ft | 121 kts | 198° |
| 2026-04-22 02:26 | 39.39852 | -106.05098 | 12162 ft | 136 kts | 198° |
| 2026-04-22 02:26 | 39.38884 | -106.05416 | 12110 ft | 148 kts | 197° |
| 2026-04-22 02:26 | 39.37908 | -106.05753 | 12295 ft | 143 kts | 196° |
| 2026-04-22 02:27 | 39.36873 | -106.05972 | 12224 ft | 163 kts | 187° |
| 2026-04-22 02:27 | 39.35740 | -106.05955 | 12290 ft | 160 kts | 174° |
| 2026-04-22 02:27 | 39.34688 | -106.05502 | 12398 ft | 160 kts | 154° |
| 2026-04-22 02:27 | 39.33721 | -106.04832 | 12408 ft | 160 kts | 164° |
| 2026-04-22 02:28 | 39.32604 | -106.04619 | 12402 ft | 158 kts | 181° |
| 2026-04-22 02:28 | 39.31544 | -106.04875 | 12400 ft | 159 kts | 197° |
| 2026-04-22 02:28 | 39.30478 | -106.05240 | 12359 ft | 159 kts | 197° |
| 2026-04-22 02:28 | 39.29436 | -106.05647 | 12437 ft | 154 kts | 202° |
| 2026-04-22 02:29 | 39.28598 | -106.06393 | 12748 ft | 138 kts | 227° |
| 2026-04-22 02:29 | 39.28138 | -106.07425 | 12986 ft | 132 kts | 250° |
| 2026-04-22 02:29 | 39.27938 | -106.08574 | 13246 ft | 129 kts | 259° |
| 2026-04-22 02:29 | 39.27926 | -106.09724 | 13457 ft | 132 kts | 268° |
| 2026-04-22 02:30 | 39.27946 | -106.10990 | 13405 ft | 146 kts | 270° |
| 2026-04-22 02:30 | 39.28080 | -106.12356 | 13410 ft | 154 kts | 277° |
| 2026-04-22 02:30 | 39.28208 | -106.13689 | 13688 ft | 142 kts | 269° |
| 2026-04-22 02:30 | 39.27887 | -106.14753 | 13924 ft | 134 kts | 232° |
| 2026-04-22 02:31 | 39.27316 | -106.15699 | 14171 ft | 124 kts | 230° |
| 2026-04-22 02:31 | 39.26694 | -106.16555 | 14146 ft | 141 kts | 222° |
| 2026-04-22 02:31 | 39.25975 | -106.17392 | 14240 ft | 139 kts | 222° |
| 2026-04-22 02:31 | 39.25279 | -106.18135 | 14352 ft | 120 kts | 218° |
| 2026-04-22 02:32 | 39.24517 | -106.18802 | 14237 ft | 148 kts | 216° |
| 2026-04-22 02:32 | 39.23703 | -106.19747 | 13995 ft | 166 kts | 228° |
| 2026-04-22 02:32 | 39.22976 | -106.20912 | 13886 ft | 165 kts | 232° |
| 2026-04-22 02:32 | 39.22244 | -106.22110 | 13484 ft | 173 kts | 235° |
| 2026-04-22 02:33 | 39.21834 | -106.23560 | 13088 ft | 174 kts | 257° |
| 2026-04-22 02:33 | 39.21613 | -106.25083 | 12738 ft | 175 kts | 256° |
| 2026-04-22 02:33 | 39.21315 | -106.26629 | 12347 ft | 176 kts | 255° |
| 2026-04-22 02:33 | 39.21085 | -106.28138 | 12117 ft | 169 kts | 257° |
| 2026-04-22 02:34 | 39.20822 | -106.29620 | 11750 ft | 170 kts | 255° |
| 2026-04-22 02:34 | 39.20595 | -106.31098 | 11490 ft | 161 kts | 259° |
| 2026-04-22 02:34 | 39.20776 | -106.32172 | 11280 ft | 146 kts | 353° |
| 2026-04-22 02:34 | 39.21720 | -106.32433 | 11094 ft | 134 kts | 340° |
| 2026-04-22 02:35 | 39.22566 | -106.32692 | 11062 ft | 122 kts | 345° |
| 2026-04-22 02:35 | 39.23331 | -106.32832 | 10939 ft | 103 kts | 15° |
| 2026-04-22 02:35 | 39.23606 | -106.32109 | 10401 ft | 91 kts | 120° |
| 2026-04-22 02:35 | 39.23147 | -106.31895 | 10116 ft | 62 kts | 179° |
| 2026-04-22 02:36 | 39.22715 | -106.31807 | 9948 ft | 60 kts | 172° |
| 2026-04-22 02:36 | 39.22485 | -106.31757 | 9934 ft | 4 kts | 126° |
| 2026-04-22 02:36 | 39.22486 | -106.31707 | 9938 ft | 10 kts | 84° |
| 2026-04-22 02:36 | 39.22502 | -106.31603 | 9935 ft | 9 kts | 18° |
| 2026-04-22 02:37 | 39.22519 | -106.31631 | 9937 ft | 0 kts | 265° |